SBCC

Details ICAO SBCC
Name CACHIMBO
Region Brazil
Timezone America/Santarem (UTC-3.0)
Plans Departing 8
Arriving 9
Stats Elevation 1,762 ft / 537 m (AMSL)
Location -9.333937° -54.965423°
Runways 1
Magnetic Variation 18.514° W
Sunrise 2018-05-21 09:48:09 UTC / 2018-05-21 06:48:09 Local
Sunset 2018-05-21 21:27:37 UTC / 2018-05-21 18:27:37 Local
Advertisement - Login to hide

Runways

ID Width Length Bearing (true) Bearing (mag) Surface Threshold Offset Overrun Length
12 148 ft / 45 m 8,509 ft / 2,594 m 101.73° 120.24° Asphalt 0 ft / 0 m 0 ft / 0 m
30 148 ft / 45 m 8,509 ft / 2,594 m 281.72° 300.23° Asphalt 0 ft / 0 m 0 ft / 0 m

Map

Weather


0- 5 10 15 20 25 30 35+ Temperature / ° C

Clouds and Precipitation
Forecast for 2018-05-21 12:00 UTC. Updated 4 minutes ago

Ground ~20,000 ft ~40,000 ft Winds

METAR

SBCC 211100Z 08006KT 9999 SCT040 BKN080 20/17 Q1016

TAF

Not found

Frequencies

Tower 125.90 MHz RDO
Warning: Do not use this data for real-world aviation or navigation. No guarantee of current accuracy is given.